Time;durP1;ratioP1;P1;durP2;ratioP2;P2;SDS_P1;SDS_P2;PMS_P1;PMS_P2;Temp;Humidity;BMP_temperature;BMP_pressure;BME280_temperature;BME280_humidity;BME280_pressure;Samples;Min_cycle;Max_cycle;Signal;HPM_P1;HPM_P2
2021/12/17 00:04:37;;;;;;;52.63;16.63;;;9.70;99.90;;;;;;5094643;28;20040;-84
2021/12/17 00:07:12;;;;;;;50.90;17.50;;;9.70;99.90;;;;;;5061111;28;20057;-86
2021/12/17 00:09:40;;;;;;;50.92;16.42;;;9.70;99.90;;;;;;5076346;28;20112;-84
2021/12/17 00:12:11;;;;;;;57.10;19.02;;;9.70;99.90;;;;;;5094368;28;20420;-85
2021/12/17 00:14:38;;;;;;;58.28;18.27;;;9.70;99.90;;;;;;5076522;28;20024;-85
2021/12/17 00:17:09;;;;;;;64.00;19.25;;;9.60;99.90;;;;;;5094214;28;20020;-85
2021/12/17 00:50:01;;;;;;;53.17;17.83;;;9.40;99.90;;;;;;5077629;28;20028;-83
2021/12/17 00:52:30;;;;;;;54.75;17.95;;;9.40;99.90;;;;;;5075592;28;20115;-83
2021/12/17 00:54:56;;;;;;;58.20;18.45;;;9.40;99.90;;;;;;5093611;28;20029;-83
2021/12/17 00:57:26;;;;;;;61.72;18.27;;;9.40;99.90;;;;;;5075019;28;20031;-85
2021/12/17 00:59:54;;;;;;;57.92;18.63;;;9.50;99.90;;;;;;5093789;28;20016;-86
2021/12/17 01:02:24;;;;;;;61.35;19.13;;;9.40;99.90;;;;;;5075857;28;20376;-85
2021/12/17 01:04:54;;;;;;;61.80;18.85;;;9.30;99.90;;;;;;5075470;28;20051;-88
2021/12/17 01:07:23;;;;;;;62.38;18.38;;;9.40;99.90;;;;;;5075686;28;20358;-85
2021/12/17 01:09:50;;;;;;;62.75;19.20;;;9.40;99.90;;;;;;5075261;28;20391;-85
2021/12/17 01:12:17;;;;;;;61.95;19.10;;;9.40;99.90;;;;;;5075417;28;20024;-85
2021/12/17 01:14:44;;;;;;;65.50;20.05;;;9.40;99.90;;;;;;5075590;28;20036;-85
2021/12/17 01:17:11;;;;;;;64.22;19.20;;;9.40;99.90;;;;;;5075243;28;20032;-85
2021/12/17 01:25:03;;;;;;;66.90;19.23;;;9.30;99.90;;;;;;5093371;28;20093;-85
2021/12/17 01:35:45;;;;;;;66.93;19.20;;;9.40;99.90;;;;;;5073239;28;20067;-85
2021/12/17 01:41:12;;;;;;;62.50;18.50;;;9.40;99.90;;;;;;5073061;28;20029;-85
2021/12/17 01:43:42;;;;;;;75.53;21.25;;;9.40;99.90;;;;;;5068262;28;20436;-84
2021/12/17 01:46:14;;;;;;;83.07;21.17;;;9.30;99.90;;;;;;5054965;28;20021;-85
2021/12/17 01:55:50;;;;;;;76.78;18.90;;;9.40;99.90;;;;;;5073656;28;20040;-85
2021/12/17 02:00:11;;;;;;;77.40;19.27;;;9.40;99.90;;;;;;5076458;28;20029;-85
2021/12/17 02:02:44;;;;;;;82.53;21.40;;;9.40;99.90;;;;;;5064457;28;20044;-85
2021/12/17 02:05:11;;;;;;;92.38;20.90;;;9.40;99.90;;;;;;5067488;28;20044;-84
2021/12/17 02:07:38;;;;;;;72.03;19.20;;;9.50;99.90;;;;;;5066736;28;20021;-85
2021/12/17 02:32:05;;;;;;;51.25;15.73;;;9.50;99.90;;;;;;5076030;28;20034;-87
2021/12/17 02:37:11;;;;;;;40.20;14.05;;;9.50;99.90;;;;;;5096330;28;20037;-85
2021/12/17 02:47:32;;;;;;;39.13;13.93;;;9.60;99.90;;;;;;5096007;28;20059;-85
2021/12/17 02:49:58;;;;;;;46.08;15.05;;;9.50;99.90;;;;;;5077989;28;20384;-85
2021/12/17 02:52:34;;;;;;;40.15;14.95;;;9.60;99.90;;;;;;5077861;28;20024;-85
2021/12/17 02:55:00;;;;;;;42.55;14.43;;;9.60;99.90;;;;;;5077966;28;20020;-85
2021/12/17 02:57:26;;;;;;;41.33;14.32;;;9.60;99.90;;;;;;5061038;28;20028;-85
2021/12/17 02:59:52;;;;;;;44.88;15.25;;;9.60;99.90;;;;;;5076894;28;20063;-84
2021/12/17 03:02:23;;;;;;;41.92;14.00;;;9.60;99.90;;;;;;5060613;28;20059;-85
2021/12/17 03:04:49;;;;;;;38.05;14.70;;;9.60;99.90;;;;;;5077702;28;20064;-85
2021/12/17 03:07:16;;;;;;;46.13;14.85;;;9.60;99.90;;;;;;5077430;28;20455;-86
2021/12/17 03:12:17;;;;;;;43.17;14.60;;;9.60;99.90;;;;;;5077523;28;20036;-87
2021/12/17 03:14:51;;;;;;;41.65;14.85;;;9.60;99.90;;;;;;5077569;28;20119;-85
2021/12/17 03:17:30;;;;;;;52.40;14.63;;;9.60;99.90;;;;;;5061755;28;20052;-85
2021/12/17 03:25:06;;;;;;;43.03;14.13;;;9.60;99.90;;;;;;5095150;28;20035;-86
2021/12/17 03:27:32;;;;;;;41.33;13.57;;;9.60;99.90;;;;;;5095245;28;20062;-84
2021/12/17 03:29:57;;;;;;;45.17;13.98;;;9.60;99.90;;;;;;5077212;28;20056;-85
2021/12/17 03:32:23;;;;;;;50.35;15.38;;;9.60;99.90;;;;;;5060287;28;20021;-85
2021/12/17 03:34:50;;;;;;;49.38;14.45;;;9.50;99.90;;;;;;5060666;28;20526;-85
2021/12/17 03:37:16;;;;;;;44.97;14.07;;;9.60;99.90;;;;;;5077288;28;20028;-85
2021/12/17 03:39:42;;;;;;;35.63;12.77;;;9.60;99.90;;;;;;5076951;28;20365;-85
2021/12/17 03:42:09;;;;;;;43.83;13.80;;;9.60;99.90;;;;;;5076858;28;20028;-86
2021/12/17 03:44:35;;;;;;;36.80;13.00;;;9.60;99.90;;;;;;5060768;28;20055;-85
2021/12/17 03:47:02;;;;;;;48.92;14.93;;;9.60;99.90;;;;;;5094879;28;20523;-85
2021/12/17 03:49:28;;;;;;;42.50;13.23;;;9.60;99.90;;;;;;5059391;28;20484;-85
2021/12/17 03:52:04;;;;;;;41.83;13.15;;;9.60;99.90;;;;;;5076685;28;20016;-85
2021/12/17 03:54:32;;;;;;;39.28;14.05;;;9.60;99.90;;;;;;5046300;28;20399;-85
2021/12/17 03:56:59;;;;;;;42.78;13.25;;;9.60;99.90;;;;;;5094589;28;20157;-85
2021/12/17 03:59:25;;;;;;;45.58;14.80;;;9.60;99.90;;;;;;5094375;28;20070;-85
2021/12/17 04:01:50;;;;;;;43.47;13.88;;;9.50;99.90;;;;;;5094788;28;20028;-84
2021/12/17 04:04:16;;;;;;;39.08;13.13;;;9.50;99.90;;;;;;5076194;28;20468;-84
2021/12/17 04:06:41;;;;;;;53.97;14.77;;;9.50;99.90;;;;;;5076247;28;20414;-84
2021/12/17 04:09:08;;;;;;;42.08;13.38;;;9.50;99.90;;;;;;5076320;28;20028;-85
2021/12/17 04:11:34;;;;;;;40.20;13.00;;;9.50;99.90;;;;;;5075981;28;20028;-85
2021/12/17 04:14:00;;;;;;;43.30;13.48;;;9.50;99.90;;;;;;5076216;28;20361;-86
2021/12/17 04:16:30;;;;;;;44.17;13.18;;;9.50;99.90;;;;;;5059681;28;20085;-85
2021/12/17 04:18:56;;;;;;;39.70;13.43;;;9.50;99.90;;;;;;5076367;28;20510;-85
2021/12/17 04:21:22;;;;;;;45.97;13.30;;;9.50;99.90;;;;;;5059171;28;20020;-85
2021/12/17 04:23:50;;;;;;;46.67;13.13;;;9.50;99.90;;;;;;5075911;28;20044;-86
2021/12/17 04:26:17;;;;;;;44.20;13.00;;;9.50;99.90;;;;;;5075864;28;20024;-85
2021/12/17 04:28:49;;;;;;;39.47;12.75;;;9.50;99.90;;;;;;5094140;28;20020;-85
2021/12/17 04:31:17;;;;;;;45.83;13.75;;;9.50;99.90;;;;;;5059489;28;20074;-85
2021/12/17 04:33:43;;;;;;;50.13;13.90;;;9.60;99.90;;;;;;5059253;28;20464;-85
2021/12/17 04:36:12;;;;;;;46.88;13.43;;;9.60;99.90;;;;;;5094082;28;20056;-85
2021/12/17 04:38:38;;;;;;;42.83;13.48;;;9.50;99.90;;;;;;5059628;28;20016;-84
2021/12/17 04:46:43;;;;;;;48.38;13.40;;;9.60;99.90;;;;;;5093719;28;20059;-85
2021/12/17 04:57:31;;;;;;;47.25;13.05;;;9.50;99.90;;;;;;5093609;28;20082;-85
2021/12/17 05:00:01;;;;;;;45.05;12.80;;;9.50;99.90;;;;;;5059896;28;20074;-85
2021/12/17 05:02:28;;;;;;;48.38;13.15;;;9.50;99.90;;;;;;5093463;28;20027;-85
2021/12/17 05:04:54;;;;;;;39.38;12.15;;;9.50;99.90;;;;;;5075136;28;20043;-84
2021/12/17 05:07:22;;;;;;;38.17;11.95;;;9.50;99.90;;;;;;5058895;28;20033;-85
2021/12/17 05:20:52;;;;;;;44.92;12.80;;;9.50;99.90;;;;;;5093325;28;20047;-85
2021/12/17 05:23:22;;;;;;;65.80;15.55;;;9.50;99.90;;;;;;5061565;28;20036;-85
2021/12/17 05:25:49;;;;;;;58.90;15.18;;;9.50;99.90;;;;;;5079569;28;20472;-84
2021/12/17 05:28:15;;;;;;;54.55;14.55;;;9.50;99.90;;;;;;5062245;28;20042;-85
2021/12/17 05:30:45;;;;;;;59.05;14.10;;;9.50;99.90;;;;;;5062442;28;20042;-83
2021/12/17 05:33:15;;;;;;;53.90;14.35;;;9.50;99.90;;;;;;5097480;28;20020;-85
2021/12/17 05:35:41;;;;;;;55.63;14.15;;;9.50;99.90;;;;;;5079940;28;20028;-84
2021/12/17 05:38:08;;;;;;;86.45;17.90;;;9.50;99.90;;;;;;5045993;28;20024;-85
2021/12/17 05:40:33;;;;;;;65.18;15.48;;;9.50;99.90;;;;;;5079016;28;20020;-85
2021/12/17 05:43:02;;;;;;;67.32;16.83;;;9.50;99.90;;;;;;5062325;28;20024;-85
2021/12/17 05:45:35;;;;;;;67.05;16.23;;;9.50;99.90;;;;;;5062431;28;20117;-85
2021/12/17 05:48:08;;;;;;;58.22;15.05;;;9.50;99.90;;;;;;5078841;28;20177;-84
2021/12/17 05:50:36;;;;;;;61.60;15.38;;;9.50;99.90;;;;;;5064142;28;20024;-85
2021/12/17 05:53:02;;;;;;;69.40;16.95;;;9.50;99.90;;;;;;5042496;28;20027;-85
2021/12/17 05:55:28;;;;;;;63.67;15.85;;;9.50;99.90;;;;;;5044315;28;20163;-85
2021/12/17 05:57:54;;;;;;;61.92;17.05;;;9.40;99.90;;;;;;5081462;28;20111;-84
2021/12/17 06:00:22;;;;;;;58.75;15.20;;;9.50;99.90;;;;;;5066632;28;20542;-91
2021/12/17 06:02:48;;;;;;;64.53;16.48;;;9.60;99.90;;;;;;5086487;28;20047;-85
2021/12/17 06:05:14;;;;;;;62.10;16.17;;;9.50;99.90;;;;;;5065373;28;20024;-85
2021/12/17 06:07:39;;;;;;;59.08;15.40;;;9.50;99.90;;;;;;5082340;28;20036;-85
2021/12/17 06:10:08;;;;;;;65.10;16.02;;;9.50;99.90;;;;;;5084242;28;20063;-85
2021/12/17 06:12:33;;;;;;;56.10;14.80;;;9.50;99.90;;;;;;5068311;28;20023;-83
2021/12/17 06:15:01;;;;;;;60.38;16.30;;;9.50;99.90;;;;;;5079014;28;20028;-86
2021/12/17 06:17:26;;;;;;;46.92;13.85;;;9.50;99.90;;;;;;5042181;28;20056;-84
2021/12/17 06:19:52;;;;;;;58.22;15.15;;;9.50;99.90;;;;;;5075334;28;20043;-83
2021/12/17 06:22:18;;;;;;;56.70;15.30;;;9.50;99.90;;;;;;5058325;28;20024;-84
2021/12/17 06:24:45;;;;;;;68.22;17.55;;;9.50;99.90;;;;;;5059750;28;20389;-81
2021/12/17 06:27:16;;;;;;;69.45;17.23;;;9.50;99.90;;;;;;5058854;28;20090;-84
2021/12/17 06:29:42;;;;;;;;;;;9.50;99.90;;;;;;5058500;28;20082;-84
2021/12/17 06:32:08;;;;;;;71.75;16.58;;;9.50;99.90;;;;;;5058072;28;19908;-84
2021/12/17 06:34:35;;;;;;;69.22;18.35;;;9.50;99.90;;;;;;5041227;28;20040;-87
2021/12/17 06:37:01;;;;;;;67.97;17.63;;;9.50;99.90;;;;;;5041609;28;20119;-83
2021/12/17 06:39:27;;;;;;;58.17;17.58;;;9.50;99.90;;;;;;5041172;28;20032;-84
2021/12/17 06:41:53;;;;;;;64.95;16.23;;;9.50;99.90;;;;;;5041392;28;20112;-83
2021/12/17 06:44:23;;;;;;;64.13;17.70;;;9.50;99.90;;;;;;5041334;28;20473;-84
2021/12/17 06:47:01;;;;;;;64.10;17.17;;;9.50;99.90;;;;;;5058320;28;20107;-84
2021/12/17 06:49:43;;;;;;;54.28;16.65;;;9.50;99.90;;;;;;5075884;28;20045;-84
2021/12/17 07:05:57;;;;;;;58.75;16.83;;;9.50;99.90;;;;;;5075787;28;20094;-84
2021/12/17 07:10:53;;;;;;;59.78;16.65;;;9.50;99.90;;;;;;5074980;28;20090;-85
2021/12/17 07:22:19;;;;;;;68.32;17.48;;;9.50;99.90;;;;;;5043732;28;20385;-86
2021/12/17 07:40:55;;;;;;;61.60;15.73;;;9.50;99.90;;;;;;5074958;28;20082;-86
2021/12/17 07:46:04;;;;;;;65.68;16.92;;;9.50;99.90;;;;;;5088543;28;20045;-86
2021/12/17 07:48:30;;;;;;;52.45;14.70;;;9.50;99.90;;;;;;5056271;28;20119;-89
2021/12/17 07:50:57;;;;;;;54.55;15.15;;;9.60;99.90;;;;;;5075134;28;20108;-86
2021/12/17 07:53:22;;;;;;;54.88;14.77;;;9.50;99.90;;;;;;5073438;28;20036;-86
2021/12/17 07:55:48;;;;;;;47.00;14.48;;;9.60;99.90;;;;;;5074658;28;20033;-86
2021/12/17 07:58:14;;;;;;;51.25;14.43;;;9.60;99.90;;;;;;5056895;28;20120;-85
2021/12/17 08:00:40;;;;;;;59.72;14.05;;;9.50;99.90;;;;;;5056766;28;20020;-85
2021/12/17 08:03:06;;;;;;;40.28;13.15;;;9.60;99.90;;;;;;5090357;28;20530;-85
2021/12/17 08:05:32;;;;;;;47.50;13.27;;;9.60;99.90;;;;;;5073607;28;20036;-85
2021/12/17 08:07:57;;;;;;;40.38;12.60;;;9.50;99.90;;;;;;5090255;28;20032;-84
2021/12/17 08:10:23;;;;;;;38.75;11.88;;;9.60;99.90;;;;;;5073171;28;20032;-85
2021/12/17 08:12:53;;;;;;;35.13;10.48;;;9.60;99.90;;;;;;5089901;28;20377;-84
2021/12/17 08:15:22;;;;;;;32.92;10.18;;;9.60;99.90;;;;;;5072493;28;20036;-84
2021/12/17 08:23:51;;;;;;;31.45;9.48;;;9.60;99.90;;;;;;5079487;28;20035;-83
2021/12/17 08:28:39;;;;;;;28.42;9.27;;;9.60;99.90;;;;;;5061324;28;20043;-83
2021/12/17 08:31:04;;;;;;;31.00;9.70;;;9.60;99.90;;;;;;5075985;28;20036;-84
2021/12/17 08:33:30;;;;;;;31.05;10.18;;;9.60;99.90;;;;;;5075929;28;20032;-84
2021/12/17 08:35:57;;;;;;;27.90;9.07;;;9.60;99.90;;;;;;5076083;28;20415;-83
2021/12/17 08:38:23;;;;;;;24.77;8.25;;;9.60;99.90;;;;;;5043488;28;20472;-83
2021/12/17 08:40:50;;;;;;;24.25;7.53;;;9.60;99.90;;;;;;5076396;28;20032;-83
2021/12/17 08:43:15;;;;;;;22.83;8.18;;;9.60;99.90;;;;;;5076373;28;20024;-83
2021/12/17 08:45:42;;;;;;;26.38;8.02;;;9.60;99.90;;;;;;5059191;28;20164;-83
2021/12/17 08:51:30;;;;;;;23.55;7.78;;;9.60;99.90;;;;;;5094057;28;20058;-83
2021/12/17 08:53:57;;;;;;;23.67;7.57;;;9.60;99.90;;;;;;5093402;28;20036;-83
2021/12/17 08:56:27;;;;;;;25.48;7.63;;;9.60;99.90;;;;;;5059124;28;20070;-83
2021/12/17 08:58:53;;;;;;;25.10;7.88;;;9.60;99.90;;;;;;5074820;28;20457;-83
2021/12/17 09:01:20;;;;;;;23.02;6.97;;;9.60;99.90;;;;;;5093853;28;20068;-83
2021/12/17 09:03:47;;;;;;;20.05;7.10;;;9.70;99.90;;;;;;5075699;28;20032;-81
2021/12/17 09:06:15;;;;;;;17.15;6.63;;;9.70;99.90;;;;;;5059241;28;20077;-83
2021/12/17 09:08:41;;;;;;;20.23;6.97;;;9.70;99.90;;;;;;5092495;28;20028;-83
2021/12/17 09:11:08;;;;;;;21.23;7.25;;;9.70;99.90;;;;;;5093689;28;20031;-83
2021/12/17 09:13:33;;;;;;;21.52;7.00;;;9.60;99.90;;;;;;5058866;28;20028;-83
2021/12/17 09:16:06;;;;;;;20.90;7.13;;;9.70;99.90;;;;;;5075689;28;20036;-83
2021/12/17 09:18:33;;;;;;;18.25;6.93;;;9.70;99.90;;;;;;5075616;28;20496;-83
2021/12/17 09:27:43;;;;;;;19.35;6.90;;;9.70;99.90;;;;;;5093755;28;20031;-82
2021/12/17 09:30:49;;;;;;;20.83;6.35;;;9.60;99.90;;;;;;5076384;28;20380;-83
2021/12/17 09:33:15;;;;;;;21.55;6.57;;;9.60;99.90;;;;;;5075723;28;20016;-83
2021/12/17 09:35:40;;;;;;;21.13;6.75;;;9.60;99.90;;;;;;5058351;28;20517;-84
2021/12/17 09:38:06;;;;;;;18.98;6.85;;;9.60;99.90;;;;;;5059884;28;20039;-83
2021/12/17 09:40:32;;;;;;;18.13;6.50;;;9.60;99.90;;;;;;5102294;28;20082;-83
2021/12/17 09:42:57;;;;;;;15.95;5.90;;;9.60;99.90;;;;;;5087587;28;20032;-84
2021/12/17 09:45:23;;;;;;;15.60;6.30;;;9.60;99.90;;;;;;5086062;28;20040;-82
2021/12/17 09:47:49;;;;;;;15.88;5.40;;;9.60;99.90;;;;;;5084015;28;20051;-83
2021/12/17 09:50:18;;;;;;;15.95;5.50;;;9.60;99.90;;;;;;5100864;28;20028;-84
2021/12/17 09:52:44;;;;;;;15.15;5.30;;;9.60;99.90;;;;;;5086913;28;20535;-83
2021/12/17 09:55:10;;;;;;;11.77;4.80;;;9.60;99.90;;;;;;5078742;28;20031;-83
2021/12/17 09:57:36;;;;;;;11.93;4.72;;;9.60;99.90;;;;;;5076851;28;20054;-83
2021/12/17 10:00:16;;;;;;;13.88;4.97;;;9.60;99.90;;;;;;5093801;28;20028;-83
2021/12/17 10:02:44;;;;;;;9.00;4.38;;;9.60;99.90;;;;;;5093904;28;20020;-83
2021/12/17 10:05:14;;;;;;;8.45;4.45;;;9.60;99.90;;;;;;5075149;28;20430;-83
2021/12/17 10:11:03;;;;;;;8.55;4.50;;;9.60;99.90;;;;;;5099939;28;20069;-83
2021/12/17 10:17:10;;;;;;;7.15;3.65;;;9.60;99.90;;;;;;5097919;28;20073;-83
2021/12/17 10:19:44;;;;;;;7.82;3.67;;;9.60;99.90;;;;;;5078914;28;20093;-83
2021/12/17 10:22:12;;;;;;;6.55;3.00;;;9.60;99.90;;;;;;5078803;28;20052;-83
2021/12/17 10:24:43;;;;;;;7.43;3.88;;;9.60;99.90;;;;;;5061896;28;20039;-83
2021/12/17 10:30:26;;;;;;;8.68;4.40;;;9.60;99.90;;;;;;5096611;28;19904;-83
2021/12/17 10:36:28;;;;;;;7.60;3.97;;;9.60;99.90;;;;;;5096640;28;20035;-83
2021/12/17 10:38:54;;;;;;;7.78;4.03;;;9.60;99.90;;;;;;5096528;28;20122;-83
2021/12/17 10:45:13;;;;;;;8.45;4.07;;;9.60;99.90;;;;;;5096664;28;20169;-83
2021/12/17 10:52:45;;;;;;;6.18;3.20;;;9.70;99.90;;;;;;5096058;28;20054;-83
2021/12/17 11:00:05;;;;;;;8.93;3.40;;;9.70;99.90;;;;;;5096612;28;20046;-83
2021/12/17 11:06:22;;;;;;;6.57;3.70;;;9.60;99.90;;;;;;5096185;28;20054;-83
2021/12/17 11:08:47;;;;;;;7.35;3.80;;;9.70;99.90;;;;;;5060687;28;20028;-83
2021/12/17 11:11:13;;;;;;;7.75;3.55;;;9.70;99.90;;;;;;5112994;28;20057;-83
2021/12/17 11:14:00;;;;;;;9.02;3.83;;;9.70;99.90;;;;;;5081720;28;20386;-83
2021/12/17 11:19:54;;;;;;;11.13;3.92;;;9.70;99.90;;;;;;5116355;28;20022;-82
2021/12/17 11:22:23;;;;;;;9.68;3.70;;;9.70;99.90;;;;;;5096929;28;20023;-83
2021/12/17 11:24:49;;;;;;;7.38;3.22;;;9.70;99.90;;;;;;5098525;28;20043;-83
2021/12/17 11:27:15;;;;;;;6.03;3.30;;;9.70;99.90;;;;;;5097773;28;20046;-82
2021/12/17 11:29:44;;;;;;;7.47;3.30;;;9.70;99.90;;;;;;5081136;28;20035;-83
2021/12/17 11:32:10;;;;;;;8.30;3.10;;;9.70;99.90;;;;;;5081837;28;20037;-83
2021/12/17 11:34:38;;;;;;;9.70;3.53;;;9.80;99.90;;;;;;5098046;28;20028;-83
2021/12/17 11:37:53;;;;;;;8.35;3.75;;;9.70;99.90;;;;;;5098063;28;20111;-83
2021/12/17 11:44:01;;;;;;;7.38;3.70;;;9.70;99.90;;;;;;5115683;28;20046;-83
2021/12/17 11:49:52;;;;;;;9.45;4.60;;;9.70;99.90;;;;;;5115472;28;20031;-83
2021/12/17 11:52:43;;;;;;;10.18;4.78;;;9.70;99.90;;;;;;5097737;28;20109;-83
2021/12/17 11:58:50;;;;;;;10.38;4.72;;;9.70;99.90;;;;;;5115398;28;20490;-83
2021/12/17 12:01:46;;;;;;;11.75;4.45;;;9.70;99.90;;;;;;5096983;28;20030;-84
2021/12/17 12:04:40;;;;;;;7.13;4.10;;;9.70;99.90;;;;;;5111477;28;20035;-84
2021/12/17 12:07:15;;;;;;;8.00;4.18;;;9.70;99.90;;;;;;5114979;28;20024;-84
2021/12/17 12:10:15;;;;;;;7.07;3.72;;;9.70;99.90;;;;;;5115192;28;20460;-83
2021/12/17 12:12:48;;;;;;;9.18;3.90;;;9.70;99.90;;;;;;5115138;28;20023;-83
2021/12/17 12:15:17;;;;;;;6.95;3.95;;;9.60;99.90;;;;;;5096509;28;20031;-84
2021/12/17 12:17:58;;;;;;;6.90;3.42;;;9.60;99.90;;;;;;5096600;28;20488;-84
2021/12/17 12:20:49;;;;;;;6.53;3.30;;;9.60;99.90;;;;;;5096693;28;20028;-83
2021/12/17 12:23:30;;;;;;;6.80;3.75;;;9.60;99.90;;;;;;5114624;28;20023;-83
2021/12/17 12:26:02;;;;;;;5.25;3.13;;;9.60;99.90;;;;;;5096448;28;20043;-84
2021/12/17 12:28:46;;;;;;;7.05;3.55;;;9.60;99.90;;;;;;5096599;28;20028;-84
2021/12/17 12:31:36;;;;;;;6.00;3.33;;;9.60;99.90;;;;;;5114578;28;20024;-83
2021/12/17 12:34:06;;;;;;;5.53;3.17;;;9.60;99.90;;;;;;5096070;28;20469;-83
2021/12/17 12:37:15;;;;;;;5.97;3.40;;;9.70;99.90;;;;;;5114641;28;20551;-84
2021/12/17 12:39:56;;;;;;;5.88;3.05;;;9.70;99.90;;;;;;5096142;28;20020;-83
2021/12/17 12:42:29;;;;;;;5.65;3.00;;;9.70;99.90;;;;;;5096415;28;20037;-83
2021/12/17 12:44:57;;;;;;;5.38;3.13;;;9.70;99.90;;;;;;5096319;28;20024;-83
2021/12/17 12:47:26;;;;;;;4.70;2.80;;;9.70;99.90;;;;;;5097072;28;20024;-83
2021/12/17 12:50:03;;;;;;;4.53;2.78;;;9.70;99.90;;;;;;5075619;28;20078;-83
2021/12/17 12:52:29;;;;;;;4.95;3.10;;;9.80;99.90;;;;;;5094243;28;20024;-83
2021/12/17 12:55:01;;;;;;;6.30;3.20;;;9.80;99.90;;;;;;5075914;28;20074;-82
2021/12/17 12:57:39;;;;;;;5.55;3.60;;;9.80;99.90;;;;;;5094086;28;20468;-83
2021/12/17 13:00:13;;;;;;;4.65;2.90;;;9.80;99.90;;;;;;5076035;28;20021;-83
2021/12/17 13:02:41;;;;;;;6.20;3.15;;;9.90;99.90;;;;;;5093659;28;20031;-84
2021/12/17 13:05:07;;;;;;;5.40;2.90;;;9.90;99.90;;;;;;5075228;28;20036;-84
2021/12/17 13:07:41;;;;;;;5.25;3.30;;;9.90;99.90;;;;;;5075492;28;20018;-83
2021/12/17 13:10:10;;;;;;;6.13;3.28;;;9.90;99.90;;;;;;5075396;28;20078;-83
2021/12/17 13:12:37;;;;;;;5.93;3.00;;;9.90;99.90;;;;;;5093464;28;20027;-83
2021/12/17 13:15:19;;;;;;;4.78;3.10;;;10.00;99.90;;;;;;5075372;28;20484;-83
2021/12/17 13:21:17;;;;;;;5.22;3.58;;;10.00;99.90;;;;;;5050366;28;20438;-84
2021/12/17 13:23:49;;;;;;;5.63;3.50;;;10.00;99.90;;;;;;5091410;28;20032;-86
2021/12/17 13:26:16;;;;;;;5.65;3.50;;;10.10;99.90;;;;;;5097640;28;20028;-89
2021/12/17 13:29:11;;;;;;;4.13;2.90;;;10.00;99.90;;;;;;5081373;28;20032;-84
2021/12/17 13:31:41;;;;;;;6.18;3.63;;;10.00;99.90;;;;;;5113660;28;20087;-83
2021/12/17 13:34:15;;;;;;;5.32;3.30;;;10.10;99.90;;;;;;5094211;28;20020;-83
2021/12/17 13:36:55;;;;;;;7.43;3.97;;;10.10;99.90;;;;;;5113113;28;20051;-83
2021/12/17 13:39:22;;;;;;;5.60;3.60;;;10.10;99.90;;;;;;5086337;28;20017;-84
2021/12/17 13:41:48;;;;;;;7.05;3.78;;;10.10;99.90;;;;;;5077627;28;20024;-84
2021/12/17 13:44:31;;;;;;;5.25;3.50;;;10.00;99.90;;;;;;5093694;28;20032;-84
2021/12/17 13:47:09;;;;;;;5.70;3.63;;;10.10;99.90;;;;;;5096540;28;20023;-83
2021/12/17 13:49:35;;;;;;;7.10;3.92;;;10.10;99.90;;;;;;5079647;28;20024;-83
2021/12/17 13:52:03;;;;;;;5.13;3.55;;;10.10;99.90;;;;;;5079626;28;20048;-83
2021/12/17 13:54:29;;;;;;;5.07;3.17;;;10.10;99.90;;;;;;5072187;28;20028;-83
2021/12/17 13:57:03;;;;;;;6.15;3.50;;;10.10;99.90;;;;;;5097340;28;20020;-83
2021/12/17 13:59:35;;;;;;;5.85;3.80;;;10.10;99.90;;;;;;5083586;28;20488;-83
2021/12/17 14:02:16;;;;;;;6.10;3.80;;;10.10;99.90;;;;;;5101633;28;20016;-83
2021/12/17 14:05:03;;;;;;;10.15;4.22;;;10.10;99.90;;;;;;5117236;28;20384;-82
2021/12/17 14:07:31;;;;;;;6.05;3.75;;;10.10;99.90;;;;;;5118032;28;20024;-84
2021/12/17 14:10:34;;;;;;;4.80;3.30;;;10.10;99.90;;;;;;5099224;28;20127;-84
2021/12/17 14:13:23;;;;;;;5.60;3.70;;;10.10;99.90;;;;;;5099691;28;20036;-81
2021/12/17 14:15:50;;;;;;;6.35;3.90;;;10.10;99.90;;;;;;5100881;28;20051;-82
2021/12/17 14:18:24;;;;;;;5.82;3.72;;;10.10;99.90;;;;;;5101455;28;20077;-82
2021/12/17 14:21:01;;;;;;;5.68;3.28;;;10.10;99.90;;;;;;5102956;28;20559;-84
2021/12/17 14:23:28;;;;;;;8.48;3.83;;;10.10;99.90;;;;;;5101549;28;20067;-83
2021/12/17 14:25:55;;;;;;;6.65;4.05;;;10.10;99.90;;;;;;5082068;28;20126;-82
2021/12/17 14:28:30;;;;;;;8.98;4.18;;;10.20;99.90;;;;;;5108609;28;20024;-83
2021/12/17 14:30:59;;;;;;;6.45;3.75;;;10.10;99.90;;;;;;5096574;28;20051;-83
2021/12/17 14:33:36;;;;;;;6.13;4.10;;;10.10;99.90;;;;;;5096562;28;20016;-84
2021/12/17 14:36:04;;;;;;;7.20;4.65;;;10.10;99.90;;;;;;5078672;28;20537;-82
2021/12/17 14:38:51;;;;;;;8.95;4.00;;;10.10;99.90;;;;;;5078410;28;20126;-84
2021/12/17 14:41:34;;;;;;;7.38;4.13;;;10.10;99.90;;;;;;5078159;28;20407;-84
2021/12/17 14:44:33;;;;;;;6.30;4.07;;;10.10;99.90;;;;;;5078347;28;20479;-83
2021/12/17 14:47:15;;;;;;;5.78;4.22;;;10.10;99.90;;;;;;5081134;28;20376;-83
2021/12/17 15:00:52;;;;;;;6.97;4.25;;;10.10;99.90;;;;;;5096453;28;20056;-83
2021/12/17 15:03:24;;;;;;;11.55;4.55;;;10.10;99.90;;;;;;5079773;28;20024;-84
2021/12/17 15:05:51;;;;;;;8.68;4.88;;;10.10;99.90;;;;;;5095914;28;20059;-83
2021/12/17 15:08:18;;;;;;;6.85;4.90;;;10.10;99.90;;;;;;5061042;28;20518;-84
2021/12/17 15:10:45;;;;;;;6.43;4.47;;;10.10;99.90;;;;;;5077768;28;20372;-84
2021/12/17 15:13:11;;;;;;;6.72;4.47;;;10.10;99.90;;;;;;5046400;28;20028;-84
2021/12/17 15:15:39;;;;;;;9.57;4.95;;;10.10;99.90;;;;;;5075330;28;20035;-83
2021/12/17 15:18:09;;;;;;;8.30;4.68;;;10.10;99.90;;;;;;5057536;28;20031;-83
2021/12/17 15:20:36;;;;;;;8.90;5.68;;;10.10;99.90;;;;;;5075100;28;20032;-83
2021/12/17 15:23:05;;;;;;;7.82;4.70;;;10.10;99.90;;;;;;5073865;28;20036;-83
2021/12/17 15:25:32;;;;;;;7.28;5.22;;;10.10;99.90;;;;;;5090771;28;20068;-83
2021/12/17 15:27:58;;;;;;;7.40;5.15;;;10.10;99.90;;;;;;5090605;28;20052;-83
2021/12/17 15:30:26;;;;;;;7.65;5.60;;;10.10;99.90;;;;;;5057183;28;20473;-84
2021/12/17 15:32:53;;;;;;;6.93;4.60;;;10.10;99.90;;;;;;5068562;28;20024;-84
2021/12/17 15:35:22;;;;;;;8.07;4.55;;;10.10;99.90;;;;;;5090220;28;20012;-83
2021/12/17 15:37:49;;;;;;;9.38;5.63;;;10.10;99.90;;;;;;5072874;28;20020;-84
2021/12/17 15:40:15;;;;;;;9.15;6.07;;;10.10;99.90;;;;;;5073940;28;20028;-93
2021/12/17 15:42:40;;;;;;;8.23;5.43;;;10.10;99.90;;;;;;5060243;28;20028;-83
2021/12/17 15:45:08;;;;;;;9.23;5.68;;;10.10;99.90;;;;;;5076828;28;20043;-83
2021/12/17 15:47:34;;;;;;;9.10;5.32;;;10.10;99.90;;;;;;5094789;28;20506;-83
2021/12/17 15:50:00;;;;;;;8.90;5.53;;;10.10;99.90;;;;;;5070942;28;20029;-84
2021/12/17 15:52:26;;;;;;;8.90;5.70;;;10.10;99.90;;;;;;5059921;28;20482;-83
2021/12/17 15:54:57;;;;;;;8.80;5.95;;;10.10;99.90;;;;;;5078204;28;20039;-83
2021/12/17 15:57:22;;;;;;;10.02;6.40;;;10.10;99.90;;;;;;5094636;28;20028;-84
2021/12/17 15:59:49;;;;;;;12.45;6.20;;;10.10;99.90;;;;;;5087563;28;20470;-83
2021/12/17 16:02:16;;;;;;;11.93;6.72;;;10.10;99.90;;;;;;5073274;28;20032;-84
2021/12/17 16:04:44;;;;;;;9.60;6.57;;;10.10;99.90;;;;;;5056376;28;20032;-83
2021/12/17 16:07:11;;;;;;;10.80;6.85;;;10.10;99.90;;;;;;5074033;28;20036;-84
2021/12/17 16:23:09;;;;;;;11.05;7.20;;;10.10;99.90;;;;;;5094332;28;20089;-84
2021/12/17 16:25:35;;;;;;;9.77;6.75;;;10.10;99.90;;;;;;5076427;28;20476;-84
2021/12/17 16:28:01;;;;;;;10.18;7.35;;;10.00;99.90;;;;;;5093672;28;20035;-84
2021/12/17 16:30:27;;;;;;;10.30;7.20;;;10.10;99.90;;;;;;5094408;28;20035;-85
2021/12/17 16:32:52;;;;;;;9.93;6.88;;;10.10;99.90;;;;;;5076256;28;20107;-84
2021/12/17 16:35:18;;;;;;;10.90;7.35;;;10.10;99.90;;;;;;5076010;28;20063;-84
2021/12/17 16:37:44;;;;;;;9.55;7.18;;;10.10;99.90;;;;;;5076460;28;20031;-84
2021/12/17 16:40:11;;;;;;;10.40;7.18;;;10.10;99.90;;;;;;5093161;28;20036;-83
2021/12/17 16:42:37;;;;;;;12.45;7.25;;;10.10;99.90;;;;;;5076391;28;20035;-84
2021/12/17 16:45:21;;;;;;;10.98;7.20;;;10.10;99.90;;;;;;5094160;28;20028;-84
2021/12/17 16:47:48;;;;;;;12.27;7.05;;;10.10;99.90;;;;;;5092077;28;20514;-83
2021/12/17 16:50:22;;;;;;;13.48;8.18;;;10.10;99.90;;;;;;5093316;28;20123;-83
2021/12/17 16:52:48;;;;;;;11.00;6.82;;;10.10;99.90;;;;;;5076031;28;20479;-83
2021/12/17 16:55:15;;;;;;;10.15;7.32;;;10.10;99.90;;;;;;5076103;28;20035;-83
2021/12/17 16:57:41;;;;;;;12.73;7.47;;;10.10;99.90;;;;;;5076238;28;20020;-83
2021/12/17 17:00:08;;;;;;;9.05;7.07;;;10.10;99.90;;;;;;5075945;28;20365;-84
2021/12/17 17:02:34;;;;;;;10.25;7.53;;;10.10;99.90;;;;;;5092933;28;20020;-83
2021/12/17 17:04:59;;;;;;;12.25;7.97;;;10.10;99.90;;;;;;5058525;28;20146;-85
2021/12/17 17:07:27;;;;;;;11.38;7.50;;;10.20;99.90;;;;;;5057030;28;20036;-84
2021/12/17 17:09:53;;;;;;;10.85;7.60;;;10.10;99.90;;;;;;5046525;28;20029;-84
2021/12/17 17:12:19;;;;;;;10.93;7.30;;;10.10;99.90;;;;;;5066663;28;20039;-85
2021/12/17 17:14:45;;;;;;;10.13;6.63;;;10.10;99.90;;;;;;5073663;28;20024;-84
2021/12/17 17:17:10;;;;;;;8.73;5.80;;;10.10;99.90;;;;;;5074230;28;20051;-86